createdAt,value
2018-11-04T00:00:13.927Z,6.80
2018-11-04T00:02:45.260Z,6.80
2018-11-04T00:05:16.941Z,6.80
2018-11-04T00:07:51.238Z,6.90
2018-11-04T00:10:22.690Z,6.80
2018-11-04T00:12:54.273Z,6.80
2018-11-04T00:15:25.380Z,6.70
2018-11-04T00:17:56.551Z,6.70
2018-11-04T00:20:27.754Z,6.70
2018-11-04T00:22:58.959Z,6.50
2018-11-04T00:25:29.945Z,6.50
2018-11-04T00:28:01.521Z,6.50
2018-11-04T00:30:32.530Z,6.40
2018-11-04T00:33:03.724Z,6.60
2018-11-04T00:35:34.907Z,6.70
2018-11-04T00:38:06.403Z,6.70
2018-11-04T00:40:37.487Z,6.70
2018-11-04T00:43:08.677Z,6.70
2018-11-04T00:45:39.840Z,6.70
2018-11-04T00:48:11.347Z,6.70
2018-11-04T00:50:42.636Z,6.60
2018-11-04T00:53:13.835Z,6.60
2018-11-04T00:55:53.307Z,6.50
2018-11-04T00:58:25.466Z,6.50
2018-11-04T01:00:56.646Z,6.50
2018-11-04T01:03:27.900Z,6.60
2018-11-04T01:05:59.045Z,6.60
2018-11-04T01:08:30.521Z,6.50
2018-11-04T01:11:01.610Z,6.50
2018-11-04T01:13:32.603Z,6.50
2018-11-04T01:16:03.809Z,6.30
2018-11-04T01:18:34.980Z,6.20
2018-11-04T01:21:06.580Z,6.20
2018-11-04T01:23:37.779Z,6.20
2018-11-04T01:26:08.992Z,6.40
2018-11-04T01:28:40.008Z,6.50
2018-11-04T01:31:11.137Z,6.60
2018-11-04T01:33:42.526Z,6.70
2018-11-04T01:36:13.721Z,6.60
2018-11-04T01:38:44.929Z,6.60
2018-11-04T01:41:16.108Z,6.40
2018-11-04T01:43:47.295Z,6.30
2018-11-04T01:46:18.494Z,6.50
2018-11-04T01:48:49.980Z,6.40
2018-11-04T01:51:21.070Z,6.30
2018-11-04T01:53:52.256Z,6.40
2018-11-04T01:56:23.472Z,6.30
2018-11-04T01:58:54.689Z,6.30
2018-11-04T02:01:25.708Z,6.20
2018-11-04T02:03:56.850Z,6.20
2018-11-04T02:06:28.055Z,6.20
2018-11-04T02:08:59.233Z,6.40
2018-11-04T02:11:30.230Z,6.30
2018-11-04T02:14:01.710Z,6.30
2018-11-04T02:16:32.988Z,6.40
2018-11-04T02:19:04.202Z,6.30
2018-11-04T02:21:35.380Z,6.10
2018-11-04T02:24:07.262Z,6.10
2018-11-04T02:26:38.563Z,6.20
2018-11-04T02:29:09.618Z,6.20
2018-11-04T02:31:40.938Z,6.00
2018-11-04T02:34:12.118Z,5.90
2018-11-04T02:36:43.336Z,5.90
2018-11-04T02:39:14.661Z,5.80
2018-11-04T02:41:46.207Z,5.80
2018-11-04T02:44:17.513Z,5.90
2018-11-04T02:46:48.478Z,6.10
2018-11-04T02:49:19.678Z,6.20
2018-11-04T02:51:50.927Z,6.20
2018-11-04T02:54:22.250Z,6.10
2018-11-04T02:56:53.267Z,6.10
2018-11-04T02:59:24.486Z,6.10
2018-11-04T03:01:55.597Z,6.20
2018-11-04T03:04:27.135Z,6.10
2018-11-04T03:06:58.258Z,6.00
2018-11-04T03:09:29.425Z,5.80
2018-11-04T03:12:00.408Z,5.90
2018-11-04T03:14:32.195Z,6.00
2018-11-04T03:17:03.550Z,6.00
2018-11-04T03:19:35.080Z,5.90
2018-11-04T03:22:06.632Z,6.10
2018-11-04T03:24:37.950Z,6.10
2018-11-04T03:27:09.137Z,6.20
2018-11-04T03:29:40.359Z,6.20
2018-11-04T03:32:12.199Z,6.20
2018-11-04T03:34:43.486Z,6.10
2018-11-04T03:37:14.742Z,6.20
2018-11-04T03:39:46.312Z,6.30
2018-11-04T03:42:17.308Z,6.20
2018-11-04T03:44:48.459Z,6.20
2018-11-04T03:47:19.643Z,6.10
2018-11-04T03:49:50.635Z,6.20
2018-11-04T03:52:21.634Z,6.20
2018-11-04T03:54:52.823Z,6.20
2018-11-04T03:57:24.031Z,6.20
2018-11-04T03:59:55.443Z,6.30
2018-11-04T04:02:26.617Z,6.30
2018-11-04T04:04:57.795Z,6.30
2018-11-04T04:07:28.979Z,6.30
2018-11-04T04:10:00.363Z,6.20
2018-11-04T04:12:31.573Z,6.10
2018-11-04T04:15:02.778Z,6.10
2018-11-04T04:17:33.940Z,6.30
2018-11-04T04:20:06.170Z,6.30
2018-11-04T04:22:37.319Z,6.30
2018-11-04T04:25:08.679Z,6.10
2018-11-04T04:27:39.887Z,6.20
2018-11-04T04:30:12.473Z,6.30
2018-11-04T04:32:43.646Z,6.30
2018-11-04T04:35:14.896Z,6.30
2018-11-04T04:37:46.737Z,6.30
2018-11-04T04:40:18.028Z,6.30
2018-11-04T04:42:49.222Z,6.20
2018-11-04T04:45:20.411Z,6.20
2018-11-04T04:47:51.607Z,6.20
2018-11-04T04:50:22.799Z,6.40
2018-11-04T04:52:53.992Z,6.30
2018-11-04T04:55:25.168Z,6.10
2018-11-04T04:57:56.175Z,5.90
2018-11-04T05:00:27.215Z,5.70
2018-11-04T05:02:58.166Z,6.00
2018-11-04T05:05:29.690Z,6.10
2018-11-04T05:08:00.942Z,6.20
2018-11-04T05:10:31.915Z,6.20
2018-11-04T05:13:03.123Z,6.00
2018-11-04T05:15:34.299Z,5.70
2018-11-04T05:18:05.867Z,5.80
2018-11-04T05:20:37.227Z,5.80
2018-11-04T05:23:08.804Z,5.90
2018-11-04T05:25:40.085Z,6.00
2018-11-04T05:28:11.311Z,6.10
2018-11-04T05:30:43.284Z,6.20
2018-11-04T05:33:14.426Z,6.40
2018-11-04T05:35:45.970Z,6.40
2018-11-04T05:38:17.256Z,6.40
2018-11-04T05:40:48.194Z,6.40
2018-11-04T05:43:19.524Z,6.10
2018-11-04T05:45:50.584Z,6.00
2018-11-04T05:48:21.587Z,6.00
2018-11-04T05:50:52.767Z,5.90
2018-11-04T05:53:23.967Z,5.70
2018-11-04T05:55:54.965Z,5.70
2018-11-04T05:58:26.261Z,5.60
2018-11-04T06:00:57.848Z,5.50
2018-11-04T06:03:29.440Z,5.60
2018-11-04T06:06:01.069Z,5.50
2018-11-04T06:08:32.291Z,5.80
2018-11-04T06:11:03.998Z,5.70
2018-11-04T06:13:35.320Z,5.60
2018-11-04T06:16:07.007Z,5.80
2018-11-04T06:18:38.310Z,5.80
2018-11-04T06:21:09.465Z,5.90
2018-11-04T06:23:40.668Z,6.00
2018-11-04T06:26:11.819Z,6.10
2018-11-04T06:28:42.809Z,6.20
2018-11-04T06:31:14.702Z,6.10
2018-11-04T06:33:45.790Z,6.10
2018-11-04T06:36:17.151Z,6.10
2018-11-04T06:38:48.383Z,6.10
2018-11-04T06:41:19.450Z,6.20
2018-11-04T06:43:50.406Z,6.30
2018-11-04T06:46:21.567Z,6.30
2018-11-04T06:48:52.756Z,6.30
2018-11-04T06:51:23.962Z,6.30
2018-11-04T06:53:55.155Z,6.20
2018-11-04T06:56:26.124Z,6.20
2018-11-04T06:58:57.129Z,6.10
2018-11-04T07:01:28.322Z,6.00
2018-11-04T07:04:26.863Z,6.20
2018-11-04T07:06:58.378Z,6.00
2018-11-04T07:09:29.910Z,6.00
2018-11-04T07:12:01.192Z,6.00
2018-11-04T07:14:32.208Z,6.20
2018-11-04T07:17:03.407Z,6.30
2018-11-04T07:19:34.388Z,6.30
2018-11-04T07:22:05.711Z,6.30
2018-11-04T07:24:36.774Z,6.30
2018-11-04T07:27:08.019Z,6.20
2018-11-04T07:29:39.647Z,6.30
2018-11-04T07:32:10.788Z,6.30
2018-11-04T07:34:41.743Z,6.30
2018-11-04T07:37:12.984Z,6.30
2018-11-04T07:39:44.137Z,6.30
2018-11-04T07:42:15.107Z,6.40
2018-11-04T07:44:46.304Z,6.40
2018-11-04T07:47:17.546Z,6.30
2018-11-04T07:49:48.687Z,6.40
2018-11-04T07:52:19.691Z,6.50
2018-11-04T07:54:50.703Z,6.60
2018-11-04T07:57:21.672Z,6.50
2018-11-04T07:59:52.863Z,6.50
2018-11-04T08:02:23.863Z,6.60
2018-11-04T08:04:55.063Z,6.70
2018-11-04T08:07:26.110Z,6.50
2018-11-04T08:09:57.108Z,6.20
2018-11-04T08:12:28.231Z,6.50
2018-11-04T08:14:59.504Z,6.60
2018-11-04T08:17:31.139Z,6.70
2018-11-04T08:20:02.407Z,6.90
2018-11-04T08:22:33.409Z,7.00
2018-11-04T08:25:04.442Z,7.00
2018-11-04T08:27:35.586Z,7.00
2018-11-04T08:30:08.042Z,7.00
2018-11-04T08:32:39.396Z,6.80
2018-11-04T08:35:10.373Z,6.80
2018-11-04T08:37:41.567Z,7.00
2018-11-04T08:40:12.565Z,7.00
2018-11-04T08:42:44.418Z,7.00
2018-11-04T08:45:15.704Z,7.00
2018-11-04T08:47:46.703Z,7.00
2018-11-04T08:50:17.885Z,7.10
2018-11-04T08:52:49.130Z,7.20
2018-11-04T08:55:20.481Z,7.10
2018-11-04T08:57:51.668Z,7.10
2018-11-04T09:00:22.850Z,7.00
2018-11-04T09:02:54.748Z,7.00
2018-11-04T09:05:25.835Z,7.00
2018-11-04T09:07:57.033Z,7.20
2018-11-04T09:10:28.214Z,7.30
2018-11-04T09:12:59.416Z,7.30
2018-11-04T09:15:30.606Z,7.50
2018-11-04T09:18:01.847Z,7.60
2018-11-04T09:20:32.782Z,7.60
2018-11-04T09:23:04.077Z,7.70
2018-11-04T09:25:35.162Z,7.60
2018-11-04T09:28:06.655Z,7.70
2018-11-04T09:30:37.782Z,7.90
2018-11-04T09:33:08.770Z,7.90
2018-11-04T09:35:40.831Z,7.80
2018-11-04T09:38:11.904Z,7.80
2018-11-04T09:40:43.093Z,7.90
2018-11-04T09:43:14.098Z,8.00
2018-11-04T09:45:45.288Z,8.20
2018-11-04T09:48:16.482Z,8.20
2018-11-04T09:50:47.709Z,8.10
2018-11-04T09:53:18.966Z,8.00
2018-11-04T09:55:50.255Z,8.20
2018-11-04T09:58:21.444Z,8.20
2018-11-04T10:00:52.645Z,8.30
2018-11-04T10:03:23.841Z,8.30
2018-11-04T10:10:43.655Z,8.80
2018-11-04T10:13:14.865Z,8.90
2018-11-04T10:15:45.844Z,8.70
2018-11-04T10:18:17.025Z,8.80
2018-11-04T10:20:48.585Z,8.90
2018-11-04T10:23:19.968Z,9.00
2018-11-04T10:25:50.982Z,9.20
2018-11-04T10:28:26.035Z,9.30
2018-11-04T10:30:57.111Z,9.00
2018-11-04T10:33:28.120Z,9.30
2018-11-04T10:35:59.110Z,9.20
2018-11-04T10:38:30.126Z,9.80
2018-11-04T10:41:01.314Z,9.90
2018-11-04T10:43:32.299Z,9.90
2018-11-04T10:46:03.319Z,9.90
2018-11-04T10:48:34.490Z,10.30
2018-11-04T10:51:06.053Z,11.50
2018-11-04T10:53:37.956Z,11.90
2018-11-04T10:56:09.030Z,12.20
2018-11-04T10:58:40.943Z,12.60
2018-11-04T11:01:12.815Z,12.80
2018-11-04T11:03:43.801Z,12.90
2018-11-04T11:06:15.279Z,12.80
2018-11-04T11:08:46.379Z,13.00
2018-11-04T11:11:17.372Z,13.20
2018-11-04T11:13:48.573Z,13.70
2018-11-04T11:16:19.762Z,13.40
2018-11-04T11:18:50.743Z,14.20
2018-11-04T11:21:21.951Z,14.10
2018-11-04T11:23:53.501Z,13.30
2018-11-04T11:26:24.724Z,13.20
2018-11-04T11:28:55.927Z,13.60
2018-11-04T11:31:27.218Z,14.50
2018-11-04T11:33:58.548Z,14.50
2018-11-04T11:36:29.690Z,15.70
2018-11-04T11:39:00.672Z,16.20
2018-11-04T11:41:31.872Z,16.20
2018-11-04T11:44:03.161Z,16.10
2018-11-04T11:46:34.651Z,15.30
2018-11-04T11:49:05.839Z,14.70
2018-11-04T11:51:37.223Z,14.70
2018-11-04T11:54:08.804Z,14.50
2018-11-04T11:56:40.003Z,14.70
2018-11-04T11:59:11.398Z,15.30
2018-11-04T12:01:42.525Z,15.40
2018-11-04T12:04:13.999Z,15.30
2018-11-04T12:06:45.173Z,15.60
2018-11-04T12:09:16.187Z,15.40
2018-11-04T12:11:47.355Z,15.50
2018-11-04T12:14:18.544Z,15.70
2018-11-04T12:16:49.755Z,15.80
2018-11-04T12:19:20.936Z,15.30
2018-11-04T12:21:52.255Z,15.80
2018-11-04T12:24:23.639Z,15.90
2018-11-04T12:26:55.312Z,16.30
2018-11-04T12:29:26.479Z,16.20
2018-11-04T12:31:57.735Z,15.90
2018-11-04T12:34:28.879Z,15.80
2018-11-04T12:37:00.060Z,15.90
2018-11-04T12:39:31.242Z,15.70
2018-11-04T12:42:02.402Z,15.70
2018-11-04T12:44:33.548Z,15.90
2018-11-04T12:47:04.977Z,16.40
2018-11-04T12:49:36.718Z,15.70
2018-11-04T12:52:08.331Z,15.40
2018-11-04T12:54:39.426Z,15.20
2018-11-04T12:57:11.292Z,15.10
2018-11-04T12:59:42.556Z,14.70
2018-11-04T13:02:13.572Z,14.50
2018-11-04T13:04:44.740Z,14.50
2018-11-04T13:07:17.025Z,14.50
2018-11-04T13:09:48.304Z,14.90
2018-11-04T13:12:19.313Z,15.10
2018-11-04T13:14:50.491Z,15.80
2018-11-04T13:17:21.695Z,15.70
2018-11-04T13:19:52.883Z,15.60
2018-11-04T13:22:24.079Z,15.80
2018-11-04T13:24:55.362Z,15.30
2018-11-04T13:27:27.163Z,15.30
2018-11-04T13:29:58.437Z,15.10
2018-11-04T13:32:29.631Z,15.30
2018-11-04T13:35:00.829Z,15.40
2018-11-04T13:37:31.811Z,15.30
2018-11-04T13:40:03.040Z,15.20
2018-11-04T13:42:34.205Z,15.70
2018-11-04T13:45:05.590Z,15.90
2018-11-04T13:47:37.022Z,16.50
2018-11-04T13:50:11.386Z,15.70
2018-11-04T13:52:42.897Z,15.00
2018-11-04T13:55:15.136Z,14.80
2018-11-04T13:57:46.476Z,14.50
2018-11-04T14:00:18.199Z,14.40
2018-11-04T14:02:50.106Z,14.70
2018-11-04T14:05:21.726Z,15.30
2018-11-04T14:07:53.034Z,15.00
2018-11-04T14:10:24.889Z,15.00
2018-11-04T14:12:56.559Z,14.90
2018-11-04T14:15:27.763Z,14.80
2018-11-04T14:17:58.952Z,14.80
2018-11-04T14:20:30.181Z,14.80
2018-11-04T14:23:01.362Z,15.00
2018-11-04T14:25:32.626Z,15.60
2018-11-04T14:28:03.955Z,15.20
2018-11-04T14:30:34.916Z,15.10
2018-11-04T14:33:06.046Z,15.00
2018-11-04T14:35:37.311Z,15.10
2018-11-04T14:38:08.487Z,15.50
2018-11-04T14:40:39.696Z,15.80
2018-11-04T14:43:10.879Z,15.80
2018-11-04T14:45:42.114Z,15.80
2018-11-04T14:48:13.453Z,15.80
2018-11-04T14:50:44.660Z,15.90
2018-11-04T14:53:15.879Z,16.00
2018-11-04T14:55:47.186Z,16.00
2018-11-04T14:58:18.219Z,15.80
2018-11-04T15:00:49.495Z,15.60
2018-11-04T15:03:20.635Z,15.70
2018-11-04T15:05:51.595Z,15.70
2018-11-04T15:08:22.704Z,15.90
2018-11-04T15:10:54.304Z,15.90
2018-11-04T15:13:25.583Z,15.60
2018-11-04T15:15:56.780Z,15.30
2018-11-04T15:18:28.005Z,15.20
2018-11-04T15:20:59.335Z,15.20
2018-11-04T15:23:30.531Z,15.10
2018-11-04T15:26:01.766Z,15.20
2018-11-04T15:28:33.192Z,15.20
2018-11-04T15:31:04.595Z,15.30
2018-11-04T15:33:36.117Z,15.50
2018-11-04T15:36:07.824Z,15.40
2018-11-04T15:38:39.109Z,15.40
2018-11-04T15:41:10.061Z,15.40
2018-11-04T15:43:41.241Z,15.10
2018-11-04T15:46:12.455Z,14.80
2018-11-04T15:48:43.650Z,14.70
2018-11-04T15:51:14.823Z,14.40
2018-11-04T15:53:45.820Z,14.40
2018-11-04T15:56:17.458Z,14.40
2018-11-04T15:58:48.932Z,14.30
2018-11-04T16:01:20.187Z,14.30
2018-11-04T16:03:51.373Z,14.10
2018-11-04T16:06:23.076Z,14.00
2018-11-04T16:08:54.173Z,14.00
2018-11-04T16:11:25.356Z,14.00
2018-11-04T16:13:56.336Z,13.90
2018-11-04T16:16:27.547Z,13.80
2018-11-04T16:18:58.843Z,13.60
2018-11-04T16:21:30.112Z,13.50
2018-11-04T16:24:01.298Z,13.50
2018-11-04T16:26:32.505Z,13.40
2018-11-04T16:29:03.744Z,13.30
2018-11-04T16:31:35.129Z,13.30
2018-11-04T16:34:06.576Z,13.10
2018-11-04T16:36:38.154Z,13.00
2018-11-04T16:39:10.203Z,12.90
2018-11-04T16:41:41.437Z,12.70
2018-11-04T16:44:13.229Z,12.70
2018-11-04T16:46:44.391Z,12.60
2018-11-04T16:49:15.384Z,12.50
2018-11-04T16:51:46.584Z,12.50
2018-11-04T16:54:17.779Z,12.50
2018-11-04T16:56:49.403Z,12.40
2018-11-04T16:59:20.923Z,12.40
2018-11-04T17:01:52.488Z,12.40
2018-11-04T17:04:23.646Z,12.40
2018-11-04T17:06:55.035Z,12.30
2018-11-04T17:09:26.312Z,12.30
2018-11-04T17:11:57.511Z,12.20
2018-11-04T17:14:28.691Z,12.10
2018-11-04T17:17:00.167Z,12.10
2018-11-04T17:19:31.472Z,12.00
2018-11-04T17:22:02.481Z,11.90
2018-11-04T17:24:33.455Z,12.00
2018-11-04T17:27:04.522Z,11.90
2018-11-04T17:29:35.694Z,11.90
2018-11-04T17:32:06.887Z,11.90
2018-11-04T17:34:38.042Z,11.90
2018-11-04T17:37:10.039Z,11.90
2018-11-04T17:39:41.199Z,11.70
2018-11-04T17:42:12.474Z,11.70
2018-11-04T17:44:43.645Z,11.70
2018-11-04T17:47:14.856Z,11.70
2018-11-04T17:49:46.160Z,11.60
2018-11-04T17:52:17.151Z,11.60
2018-11-04T17:54:48.367Z,11.60
2018-11-04T17:57:19.541Z,11.50
2018-11-04T17:59:51.614Z,11.50
2018-11-04T18:02:23.236Z,11.40
2018-11-04T18:04:54.592Z,11.40
2018-11-04T18:07:25.950Z,11.30
2018-11-04T18:09:57.430Z,11.40
2018-11-04T18:12:28.802Z,11.40
2018-11-04T18:15:00.064Z,11.40
2018-11-04T18:17:31.312Z,11.30
2018-11-04T18:20:02.941Z,11.10
2018-11-04T18:22:34.203Z,11.10
2018-11-04T18:25:09.576Z,11.00
2018-11-04T18:27:40.579Z,11.10
2018-11-04T18:30:15.400Z,11.10
2018-11-04T18:32:47.207Z,11.10
2018-11-04T18:35:18.365Z,11.20
2018-11-04T18:37:49.619Z,11.20
2018-11-04T18:40:20.824Z,11.10
2018-11-04T18:42:51.811Z,11.00
2018-11-04T18:45:22.998Z,10.90
2018-11-04T18:47:54.203Z,11.00
2018-11-04T18:50:25.421Z,11.00
2018-11-04T18:52:56.579Z,11.00
2018-11-04T18:55:27.569Z,10.90
2018-11-04T18:57:58.771Z,10.80
2018-11-04T19:00:30.013Z,10.80
2018-11-04T19:03:01.156Z,10.70
2018-11-04T19:05:32.245Z,10.70
2018-11-04T19:08:03.611Z,10.80
2018-11-04T19:10:34.932Z,10.70
2018-11-04T19:13:06.115Z,10.80
2018-11-04T19:15:37.298Z,10.60
2018-11-04T19:18:09.279Z,10.50
2018-11-04T19:20:40.307Z,10.50
2018-11-04T19:23:11.605Z,10.60
2018-11-04T19:25:42.663Z,10.50
2018-11-04T19:28:13.657Z,10.40
2018-11-04T19:30:45.304Z,10.50
2018-11-04T19:33:16.432Z,10.50
2018-11-04T19:35:47.632Z,10.60
2018-11-04T19:38:18.843Z,10.60
2018-11-04T19:40:50.212Z,10.40
2018-11-04T19:43:21.242Z,10.30
2018-11-04T19:45:52.401Z,10.40
2018-11-04T19:48:23.466Z,10.40
2018-11-04T19:50:54.862Z,10.50
2018-11-04T19:53:25.784Z,10.50
2018-11-04T19:55:57.383Z,10.80
2018-11-04T19:58:28.377Z,11.10
2018-11-04T20:00:59.913Z,11.40
2018-11-04T20:03:30.953Z,11.90
2018-11-04T20:06:02.443Z,12.50
2018-11-04T20:08:33.623Z,13.20
2018-11-04T20:11:05.136Z,14.10
2018-11-04T20:13:41.499Z,14.50
2018-11-04T20:16:12.664Z,14.80
2018-11-04T20:18:48.824Z,15.00
2018-11-04T20:21:20.126Z,15.10
2018-11-04T20:23:51.259Z,15.20
2018-11-04T20:26:23.302Z,15.20
2018-11-04T20:28:54.488Z,15.20
2018-11-04T20:31:31.388Z,15.20
2018-11-04T20:34:02.981Z,15.40
2018-11-04T20:36:34.234Z,15.40
2018-11-04T20:39:12.651Z,15.40
2018-11-04T20:41:44.504Z,15.40
2018-11-04T20:44:15.928Z,15.60
2018-11-04T20:46:47.720Z,15.60
2018-11-04T20:49:23.745Z,15.60
2018-11-04T20:51:55.191Z,15.60
2018-11-04T20:54:26.430Z,15.70
2018-11-04T20:57:02.429Z,15.70
2018-11-04T20:59:33.842Z,15.70
2018-11-04T21:02:05.593Z,15.70
2018-11-04T21:04:36.575Z,15.60
2018-11-04T21:07:08.420Z,15.60
2018-11-04T21:09:39.723Z,15.60
2018-11-04T21:12:10.888Z,15.70
2018-11-04T21:14:41.871Z,15.80
2018-11-04T21:17:13.064Z,15.70
2018-11-04T21:19:44.246Z,15.80
2018-11-04T21:22:15.640Z,15.80
2018-11-04T21:24:46.893Z,15.70
2018-11-04T21:27:18.032Z,15.70
2018-11-04T21:29:49.311Z,15.70
2018-11-04T21:32:20.592Z,15.80
2018-11-04T21:34:55.578Z,15.80
2018-11-04T21:37:27.055Z,15.80
2018-11-04T21:39:58.312Z,15.80
2018-11-04T21:42:29.656Z,15.90
2018-11-04T21:45:00.892Z,15.90
2018-11-04T21:47:32.419Z,15.80
2018-11-04T21:50:03.489Z,15.80
2018-11-04T21:52:34.658Z,15.80
2018-11-04T21:55:06.582Z,15.70
2018-11-04T21:57:37.868Z,15.80
2018-11-04T22:00:11.725Z,15.80
2018-11-04T22:02:43.240Z,15.80
2018-11-04T22:05:14.666Z,15.80
2018-11-04T22:07:45.931Z,15.90
2018-11-04T22:10:17.178Z,15.90
2018-11-04T22:12:48.591Z,15.90
2018-11-04T22:15:19.913Z,15.90
2018-11-04T22:17:51.097Z,15.80
2018-11-04T22:20:22.293Z,15.90
2018-11-04T22:22:53.480Z,15.90
2018-11-04T22:25:24.683Z,15.90
2018-11-04T22:27:55.868Z,15.90
2018-11-04T22:30:26.859Z,15.90
2018-11-04T22:32:58.167Z,15.90
2018-11-04T22:35:29.445Z,15.90
2018-11-04T22:38:00.644Z,15.90
2018-11-04T22:40:31.831Z,15.90
2018-11-04T22:43:02.839Z,15.90
2018-11-04T22:45:33.808Z,15.90
2018-11-04T22:48:05.507Z,15.90
2018-11-04T22:50:36.793Z,15.90
2018-11-04T22:53:08.020Z,15.90
2018-11-04T22:55:38.967Z,15.90
2018-11-04T22:58:10.200Z,15.90
2018-11-04T23:00:44.499Z,15.80
2018-11-04T23:03:15.825Z,15.80
2018-11-04T23:05:47.082Z,15.80
2018-11-04T23:08:18.572Z,15.80
2018-11-04T23:10:50.688Z,15.80
2018-11-04T23:13:21.665Z,15.80
2018-11-04T23:15:52.848Z,15.80
2018-11-04T23:18:23.857Z,15.80
2018-11-04T23:20:55.011Z,15.80
2018-11-04T23:23:26.364Z,15.70
2018-11-04T23:25:57.604Z,15.70
2018-11-04T23:28:28.790Z,15.70
2018-11-04T23:30:59.988Z,15.60
2018-11-04T23:33:31.524Z,15.60
2018-11-04T23:36:09.295Z,15.50
2018-11-04T23:38:40.237Z,15.50
2018-11-04T23:41:11.486Z,15.40
2018-11-04T23:43:42.649Z,15.40
2018-11-04T23:46:13.652Z,15.40
2018-11-04T23:48:44.818Z,15.50
2018-11-04T23:51:16.016Z,15.50
2018-11-04T23:53:47.194Z,15.50
2018-11-04T23:56:18.391Z,15.50
2018-11-04T23:58:49.579Z,15.40
